createdAt,value
2023-01-11T00:00:36.359Z,95723.19
2023-01-11T00:03:09.646Z,95712.94
2023-01-11T00:05:43.868Z,95717.28
2023-01-11T00:08:11.833Z,95711.38
2023-01-11T00:10:39.607Z,95711.44
2023-01-11T00:13:07.319Z,95715.28
2023-01-11T00:15:36.352Z,95711.03
2023-01-11T00:18:03.625Z,95711.66
2023-01-11T00:20:31.080Z,95703.34
2023-01-11T00:22:58.086Z,95703.28
2023-01-11T00:25:24.857Z,95705.34
2023-01-11T00:27:51.577Z,95698.81
2023-01-11T00:30:18.551Z,95709.59
2023-01-11T00:32:46.245Z,95689.84
2023-01-11T00:35:13.381Z,95693.84
2023-01-11T00:37:40.506Z,95710.75
2023-01-11T00:40:08.439Z,95698.88
2023-01-11T00:42:35.246Z,95716.59
2023-01-11T00:45:01.883Z,95703.69
2023-01-11T00:47:28.508Z,95703.13
2023-01-11T00:49:56.294Z,95699.72
2023-01-11T00:52:23.000Z,95693.22
2023-01-11T00:54:49.870Z,95695.03
2023-01-11T00:57:16.541Z,95697.59
2023-01-11T00:59:43.504Z,95686.84
2023-01-11T01:02:11.735Z,95683.78
2023-01-11T01:04:39.830Z,95688.63
2023-01-11T01:07:07.452Z,95681.75
2023-01-11T01:09:34.172Z,95685.44
2023-01-11T01:12:00.903Z,95687.06
2023-01-11T01:14:28.193Z,95679.56
2023-01-11T01:16:58.455Z,95689.53
2023-01-11T01:19:32.125Z,95679.28
2023-01-11T01:21:59.793Z,95683.19
2023-01-11T01:24:27.844Z,95681.22
2023-01-11T01:26:56.002Z,95669.94
2023-01-11T01:29:23.583Z,95667.13
2023-01-11T01:31:50.792Z,95667.31
2023-01-11T01:34:17.681Z,95658.50
2023-01-11T01:36:45.374Z,95664.38
2023-01-11T01:39:12.402Z,95658.75
2023-01-11T01:41:40.147Z,95654.47
2023-01-11T01:44:43.988Z,95652.06
2023-01-11T01:47:12.208Z,95650.56
2023-01-11T01:49:40.623Z,95661.38
2023-01-11T01:52:09.966Z,95654.00
2023-01-11T01:54:41.916Z,95658.09
2023-01-11T01:57:18.150Z,95659.56
2023-01-11T01:59:45.852Z,95650.00
2023-01-11T02:02:12.448Z,95656.44
2023-01-11T02:04:46.724Z,95664.31
2023-01-11T02:07:14.714Z,95665.94
2023-01-11T02:09:52.785Z,95667.19
2023-01-11T02:12:19.571Z,95676.47
2023-01-11T02:14:49.336Z,95675.47
2023-01-11T02:17:16.038Z,95673.41
2023-01-11T02:19:57.629Z,95680.81
2023-01-11T02:22:52.221Z,95671.53
2023-01-11T02:25:48.124Z,95666.53
2023-01-11T02:28:34.192Z,95659.28
2023-01-11T02:31:11.644Z,95649.06
2023-01-11T02:34:10.274Z,95655.13
2023-01-11T02:36:39.859Z,95653.69
2023-01-11T02:39:29.581Z,95649.69
2023-01-11T02:42:22.719Z,95645.09
2023-01-11T02:45:01.140Z,95642.69
2023-01-11T02:47:50.619Z,95629.59
2023-01-11T02:50:33.496Z,95612.91
2023-01-11T02:53:09.123Z,95613.59
2023-01-11T02:55:49.092Z,95604.13
2023-01-11T02:58:22.037Z,95610.09
2023-01-11T03:00:49.993Z,95597.28
2023-01-11T03:03:20.192Z,95595.41
2023-01-11T03:05:54.782Z,95592.25
2023-01-11T03:08:30.297Z,95584.72
2023-01-11T03:11:06.591Z,95585.88
2023-01-11T03:14:18.244Z,95586.81
2023-01-11T03:16:59.901Z,95581.72
2023-01-11T03:20:01.401Z,95578.13
2023-01-11T03:22:56.914Z,95572.69
2023-01-11T03:25:37.870Z,95582.75
2023-01-11T03:28:32.542Z,95578.94
2023-01-11T03:31:32.479Z,95586.25
2023-01-11T03:34:14.383Z,95591.34
2023-01-11T03:37:08.920Z,95582.25
2023-01-11T03:39:58.486Z,95583.50
2023-01-11T03:42:28.910Z,95587.53
2023-01-11T03:44:59.673Z,95584.53
2023-01-11T03:47:30.351Z,95590.53
2023-01-11T03:50:09.875Z,95589.28
2023-01-11T03:52:41.114Z,95582.94
2023-01-11T03:55:12.590Z,95577.38
2023-01-11T03:57:50.389Z,95572.41
2023-01-11T04:00:21.483Z,95564.06
2023-01-11T04:02:49.231Z,95560.13
2023-01-11T04:05:15.939Z,95550.50
2023-01-11T04:07:42.525Z,95538.81
2023-01-11T04:10:09.883Z,95536.47
2023-01-11T04:12:36.521Z,95538.44
2023-01-11T04:15:04.697Z,95537.53
2023-01-11T04:17:32.152Z,95526.56
2023-01-11T04:19:58.825Z,95530.38
2023-01-11T04:22:25.425Z,95537.72
2023-01-11T04:24:52.096Z,95541.81
2023-01-11T04:27:18.833Z,95542.88
2023-01-11T04:29:45.426Z,95527.00
2023-01-11T04:32:12.038Z,95535.50
2023-01-11T04:34:38.639Z,95533.41
2023-01-11T04:37:05.291Z,95530.13
2023-01-11T04:39:31.895Z,95533.34
2023-01-11T04:41:58.655Z,95531.44
2023-01-11T04:44:25.390Z,95527.00
2023-01-11T04:46:52.053Z,95525.66
2023-01-11T04:49:18.710Z,95525.56
2023-01-11T04:51:45.337Z,95534.22
2023-01-11T04:54:11.998Z,95541.88
2023-01-11T04:56:38.579Z,95539.06
2023-01-11T04:59:05.164Z,95532.47
2023-01-11T05:01:31.867Z,95529.84
2023-01-11T05:03:58.806Z,95536.28
2023-01-11T05:06:25.597Z,95530.94
2023-01-11T05:08:52.263Z,95522.09
2023-01-11T05:11:18.916Z,95525.44
2023-01-11T05:13:45.875Z,95532.72
2023-01-11T05:16:16.738Z,95530.78
2023-01-11T05:18:46.625Z,95535.72
2023-01-11T05:21:15.898Z,95536.56
2023-01-11T05:23:43.578Z,95534.38
2023-01-11T05:26:16.360Z,95536.38
2023-01-11T05:28:43.971Z,95532.47
2023-01-11T05:31:11.069Z,95530.56
2023-01-11T05:33:37.720Z,95531.72
2023-01-11T05:36:08.239Z,95531.84
2023-01-11T05:38:35.255Z,95529.06
2023-01-11T05:41:05.024Z,95526.50
2023-01-11T05:43:33.332Z,95520.69
2023-01-11T05:46:01.532Z,95516.03
2023-01-11T05:48:28.179Z,95521.56
2023-01-11T05:50:56.244Z,95511.16
2023-01-11T05:53:24.159Z,95511.63
2023-01-11T05:55:58.677Z,95510.66
2023-01-11T05:58:26.685Z,95523.41
2023-01-11T06:00:55.838Z,95509.25
2023-01-11T06:03:24.690Z,95501.59
2023-01-11T06:05:53.207Z,95508.16
2023-01-11T06:08:20.827Z,95502.06
2023-01-11T06:10:55.219Z,95514.78
2023-01-11T06:13:23.951Z,95507.84
2023-01-11T06:15:50.563Z,95514.22
2023-01-11T06:18:17.261Z,95509.56
2023-01-11T06:20:43.955Z,95509.25
2023-01-11T06:23:10.569Z,95513.69
2023-01-11T06:25:37.535Z,95520.06
2023-01-11T06:28:04.624Z,95512.69
2023-01-11T06:30:32.758Z,95502.59
2023-01-11T06:33:02.232Z,95507.09
2023-01-11T06:35:28.868Z,95517.25
2023-01-11T06:37:55.560Z,95526.41
2023-01-11T06:40:22.133Z,95516.72
2023-01-11T06:42:48.728Z,95523.53
2023-01-11T06:45:15.399Z,95525.72
2023-01-11T06:47:42.075Z,95522.78
2023-01-11T06:50:09.503Z,95523.97
2023-01-11T06:52:36.143Z,95519.94
2023-01-11T06:55:03.027Z,95527.66
2023-01-11T06:57:30.248Z,95524.09
2023-01-11T06:59:56.902Z,95514.88
2023-01-11T07:02:23.570Z,95522.41
2023-01-11T07:04:50.328Z,95520.47
2023-01-11T07:07:17.148Z,95527.94
2023-01-11T07:09:43.756Z,95531.97
2023-01-11T07:12:10.451Z,95536.28
2023-01-11T07:14:37.047Z,95539.84
2023-01-11T07:17:03.662Z,95536.91
2023-01-11T07:19:30.288Z,95531.66
2023-01-11T07:21:56.908Z,95520.31
2023-01-11T07:24:23.556Z,95517.94
2023-01-11T07:26:50.275Z,95512.72
2023-01-11T07:29:16.854Z,95514.91
2023-01-11T07:31:43.499Z,95514.22
2023-01-11T07:34:10.144Z,95512.88
2023-01-11T07:36:36.720Z,95517.69
2023-01-11T07:39:03.397Z,95515.63
2023-01-11T07:41:30.013Z,95516.13
2023-01-11T07:43:56.682Z,95527.31
2023-01-11T07:46:23.374Z,95519.56
2023-01-11T07:48:50.254Z,95515.00
2023-01-11T07:51:16.893Z,95522.84
2023-01-11T07:53:43.675Z,95520.84
2023-01-11T07:56:10.872Z,95531.69
2023-01-11T07:58:37.493Z,95519.72
2023-01-11T08:01:04.941Z,95522.25
2023-01-11T08:03:31.716Z,95509.97
2023-01-11T08:05:58.471Z,95511.22
2023-01-11T08:08:25.310Z,95505.09
2023-01-11T08:10:51.930Z,95512.69
2023-01-11T08:13:18.703Z,95518.59
2023-01-11T08:15:45.513Z,95505.84
2023-01-11T08:18:13.069Z,95508.16
2023-01-11T08:20:40.936Z,95513.41
2023-01-11T08:23:10.482Z,95535.69
2023-01-11T08:25:38.100Z,95530.44
2023-01-11T08:28:07.498Z,95528.59
2023-01-11T08:30:36.144Z,95530.50
2023-01-11T08:33:04.802Z,95534.00
2023-01-11T08:35:37.663Z,95535.78
2023-01-11T08:38:04.518Z,95539.44
2023-01-11T08:40:31.195Z,95530.53
2023-01-11T08:42:58.113Z,95533.13
2023-01-11T08:45:25.765Z,95532.53
2023-01-11T08:47:53.071Z,95532.91
2023-01-11T08:50:20.856Z,95521.81
2023-01-11T08:52:50.428Z,95527.31
2023-01-11T08:55:17.537Z,95531.56
2023-01-11T08:57:44.766Z,95538.25
2023-01-11T09:00:11.890Z,95536.03
2023-01-11T09:02:38.593Z,95545.53
2023-01-11T09:05:05.640Z,95533.78
2023-01-11T09:07:34.609Z,95533.19
2023-01-11T09:10:02.903Z,95526.84
2023-01-11T09:12:30.632Z,95519.53
2023-01-11T09:14:57.432Z,95519.06
2023-01-11T09:17:24.314Z,95522.41
2023-01-11T09:19:52.091Z,95523.00
2023-01-11T09:22:19.016Z,95524.41
2023-01-11T09:24:45.843Z,95532.09
2023-01-11T09:27:12.640Z,95537.44
2023-01-11T09:29:39.398Z,95533.31
2023-01-11T09:32:06.512Z,95543.13
2023-01-11T09:34:33.134Z,95546.53
2023-01-11T09:36:59.975Z,95551.63
2023-01-11T09:39:26.606Z,95542.09
2023-01-11T09:42:08.439Z,95538.22
2023-01-11T09:44:41.476Z,95538.81
2023-01-11T09:47:21.406Z,95538.84
2023-01-11T09:49:56.237Z,95542.69
2023-01-11T09:52:39.756Z,95547.13
2023-01-11T09:55:19.809Z,95547.56
2023-01-11T09:57:57.234Z,95535.81
2023-01-11T10:00:38.765Z,95541.06
2023-01-11T10:03:34.416Z,95547.78
2023-01-11T10:06:39.095Z,95542.06
2023-01-11T10:18:40.053Z,95544.22
2023-01-11T10:18:45.528Z,95542.84
2023-01-11T10:21:26.465Z,95540.53
2023-01-11T10:24:01.557Z,95530.78
2023-01-11T10:26:35.788Z,95526.44
2023-01-11T10:29:14.784Z,95525.03
2023-01-11T10:31:47.590Z,95525.88
2023-01-11T10:34:20.185Z,95526.69
2023-01-11T10:37:18.116Z,95522.81
2023-01-11T10:39:53.336Z,95526.06
2023-01-11T10:42:24.235Z,95518.56
2023-01-11T10:45:00.485Z,95520.19
2023-01-11T10:47:37.432Z,95517.09
2023-01-11T10:50:21.042Z,95515.28
2023-01-11T10:53:11.903Z,95516.69
2023-01-11T10:55:50.281Z,95515.31
2023-01-11T10:58:51.215Z,95517.97
2023-01-11T11:01:57.251Z,95509.25
2023-01-11T11:04:38.105Z,95504.16
2023-01-11T11:07:36.561Z,95513.31
2023-01-11T11:10:12.683Z,95514.72
2023-01-11T11:13:06.653Z,95523.38
2023-01-11T11:15:48.320Z,95511.06
2023-01-11T11:18:15.019Z,95508.81
2023-01-11T11:20:42.276Z,95503.38
2023-01-11T11:23:16.390Z,95499.13
2023-01-11T11:25:51.215Z,95507.84
2023-01-11T11:28:30.286Z,95510.25
2023-01-11T11:31:01.754Z,95513.47
2023-01-11T11:33:38.844Z,95504.53
2023-01-11T11:36:07.744Z,95512.00
2023-01-11T11:38:41.551Z,95505.31
2023-01-11T11:41:15.196Z,95515.53
2023-01-11T11:43:44.531Z,95510.25
2023-01-11T11:46:18.780Z,95517.66
2023-01-11T11:49:17.794Z,95517.06
2023-01-11T11:51:47.194Z,95523.59
2023-01-11T11:54:30.658Z,95520.94
2023-01-11T11:57:11.849Z,95524.91
2023-01-11T11:59:39.287Z,95518.28
2023-01-11T12:02:24.160Z,95519.38
2023-01-11T12:04:53.485Z,95506.00
2023-01-11T12:07:23.874Z,95508.22
2023-01-11T12:10:02.644Z,95500.31
2023-01-11T12:12:32.608Z,95509.66
2023-01-11T12:15:07.949Z,95508.25
2023-01-11T12:17:35.119Z,95509.84
2023-01-11T12:20:01.755Z,95513.47
2023-01-11T12:22:29.152Z,95516.09
2023-01-11T12:25:08.139Z,95506.97
2023-01-11T12:28:02.559Z,95505.09
2023-01-11T12:30:38.623Z,95514.91
2023-01-11T12:33:46.860Z,95506.06
2023-01-11T12:36:36.049Z,95510.88
2023-01-11T12:39:15.994Z,95500.97
2023-01-11T12:41:45.336Z,95505.22
2023-01-11T12:44:42.617Z,95515.47
2023-01-11T12:47:39.807Z,95512.34
2023-01-11T12:50:24.905Z,95507.25
2023-01-11T12:53:22.365Z,95511.78
2023-01-11T12:56:29.200Z,95513.47
2023-01-11T12:59:27.671Z,95510.94
2023-01-11T13:02:25.635Z,95516.53
2023-01-11T13:05:14.074Z,95507.63
2023-01-11T13:07:46.409Z,95503.59
2023-01-11T13:10:36.743Z,95510.25
2023-01-11T13:13:22.242Z,95505.56
2023-01-11T13:16:08.891Z,95513.06
2023-01-11T13:18:43.296Z,95522.75
2023-01-11T13:21:20.849Z,95515.47
2023-01-11T13:23:59.241Z,95515.31
2023-01-11T13:26:50.394Z,95511.66
2023-01-11T13:29:34.916Z,95527.03
2023-01-11T13:32:26.694Z,95526.25
2023-01-11T13:35:19.285Z,95525.25
2023-01-11T13:38:24.529Z,95534.16
2023-01-11T13:41:02.708Z,95532.44
2023-01-11T13:43:59.698Z,95541.72
2023-01-11T13:46:52.524Z,95538.44
2023-01-11T13:49:40.690Z,95541.66
2023-01-11T13:52:14.597Z,95536.09
2023-01-11T13:54:43.917Z,95534.56
2023-01-11T13:57:36.612Z,95538.50
2023-01-11T14:00:21.580Z,95541.22
2023-01-11T14:02:57.667Z,95533.91
2023-01-11T14:05:31.986Z,95531.53
2023-01-11T14:08:07.327Z,95539.81
2023-01-11T14:10:43.094Z,95541.22
2023-01-11T14:13:32.198Z,95547.06
2023-01-11T14:16:12.062Z,95549.75
2023-01-11T14:19:23.374Z,95543.44
2023-01-11T14:22:25.010Z,95551.22
2023-01-11T14:25:14.450Z,95561.81
2023-01-11T14:28:03.222Z,95560.72
2023-01-11T14:30:30.280Z,95565.78
2023-01-11T14:33:26.506Z,95582.03
2023-01-11T14:35:55.839Z,95581.84
2023-01-11T14:38:53.497Z,95584.91
2023-01-11T14:41:23.082Z,95588.13
2023-01-11T14:44:14.036Z,95602.34
2023-01-11T14:47:11.755Z,95610.03
2023-01-11T14:50:12.038Z,95630.03
2023-01-11T14:52:42.097Z,95637.19
2023-01-11T14:55:20.286Z,95634.19
2023-01-11T14:57:55.990Z,95639.09
2023-01-11T15:00:24.087Z,95645.38
2023-01-11T15:03:10.589Z,95652.09
2023-01-11T15:05:44.772Z,95651.94
2023-01-11T15:08:14.341Z,95646.78
2023-01-11T15:10:50.773Z,95661.09
2023-01-11T15:13:27.364Z,95660.81
2023-01-11T15:16:09.513Z,95670.56
2023-01-11T15:18:46.220Z,95676.38
2023-01-11T15:21:18.824Z,95689.44
2023-01-11T15:23:50.889Z,95698.44
2023-01-11T15:26:19.795Z,95701.50
2023-01-11T15:28:59.320Z,95703.44
2023-01-11T15:31:46.634Z,95711.59
2023-01-11T15:34:20.889Z,95710.78
2023-01-11T15:36:54.058Z,95722.81
2023-01-11T15:39:59.037Z,95714.94
2023-01-11T15:43:03.114Z,95697.66
2023-01-11T15:45:41.758Z,95700.34
2023-01-11T15:48:25.891Z,95699.44
2023-01-11T15:51:20.577Z,95708.91
2023-01-11T15:53:56.572Z,95708.28
2023-01-11T15:56:51.928Z,95713.25
2023-01-11T15:59:18.502Z,95718.09
2023-01-11T16:02:09.336Z,95712.16
2023-01-11T16:04:49.143Z,95729.09
2023-01-11T16:07:35.549Z,95719.09
2023-01-11T16:10:47.230Z,95723.94
2023-01-11T16:13:16.565Z,95734.59
2023-01-11T16:16:10.076Z,95728.47
2023-01-11T16:18:47.329Z,95728.50
2023-01-11T16:21:34.800Z,95726.84
2023-01-11T16:24:07.914Z,95728.22
2023-01-11T16:26:38.184Z,95737.78
2023-01-11T16:29:21.098Z,95754.44
2023-01-11T16:31:52.412Z,95748.09
2023-01-11T16:34:19.346Z,95766.25
2023-01-11T16:36:46.027Z,95764.84
2023-01-11T16:39:15.828Z,95749.38
2023-01-11T16:41:57.290Z,95742.03
2023-01-11T16:44:58.903Z,95758.75
2023-01-11T16:47:25.643Z,95758.06
2023-01-11T16:50:14.355Z,95762.22
2023-01-11T16:52:56.707Z,95773.63
2023-01-11T16:55:27.949Z,95786.13
2023-01-11T16:57:59.823Z,95786.34
2023-01-11T17:00:34.470Z,95778.81
2023-01-11T17:03:02.812Z,95774.28
2023-01-11T17:05:29.557Z,95771.97
2023-01-11T17:07:56.297Z,95788.34
2023-01-11T17:10:28.515Z,95788.00
2023-01-11T17:13:06.665Z,95790.72
2023-01-11T17:15:58.382Z,95776.34
2023-01-11T17:18:25.120Z,95777.88
2023-01-11T17:20:53.697Z,95788.47
2023-01-11T17:23:21.918Z,95795.00
2023-01-11T17:25:57.276Z,95801.06
2023-01-11T17:28:24.920Z,95803.28
2023-01-11T17:30:53.850Z,95807.47
2023-01-11T17:33:31.956Z,95810.97
2023-01-11T17:36:00.184Z,95805.44
2023-01-11T17:38:29.608Z,95809.13
2023-01-11T17:40:58.226Z,95816.09
2023-01-11T17:43:29.617Z,95817.06
2023-01-11T17:45:58.862Z,95819.25
2023-01-11T17:48:27.552Z,95820.81
2023-01-11T17:50:57.805Z,95845.03
2023-01-11T17:53:26.166Z,95845.38
2023-01-11T17:55:59.166Z,95843.50
2023-01-11T17:58:34.916Z,95841.13
2023-01-11T18:01:04.720Z,95834.16
2023-01-11T18:03:43.157Z,95832.69
2023-01-11T18:06:31.466Z,95831.44
2023-01-11T18:09:01.154Z,95835.91
2023-01-11T18:11:34.788Z,95834.69
2023-01-11T18:14:15.802Z,95835.22
2023-01-11T18:17:06.167Z,95826.72
2023-01-11T18:19:38.750Z,95840.88
2023-01-11T18:22:25.575Z,95847.25
2023-01-11T18:24:54.860Z,95850.19
2023-01-11T18:27:33.492Z,95855.00
2023-01-11T18:30:03.843Z,95854.34
2023-01-11T18:32:36.457Z,95853.94
2023-01-11T18:35:03.863Z,95849.47
2023-01-11T18:37:30.480Z,95853.63
2023-01-11T18:39:58.164Z,95859.47
2023-01-11T18:42:29.694Z,95862.75
2023-01-11T18:44:56.343Z,95871.09
2023-01-11T18:47:26.731Z,95877.56
2023-01-11T18:49:54.131Z,95886.47
2023-01-11T18:52:23.770Z,95889.06
2023-01-11T18:54:50.789Z,95878.66
2023-01-11T18:57:17.394Z,95873.50
2023-01-11T18:59:43.999Z,95868.94
2023-01-11T19:02:22.298Z,95884.59
2023-01-11T19:04:51.147Z,95898.28
2023-01-11T19:07:23.792Z,95897.19
2023-01-11T19:09:50.871Z,95896.69
2023-01-11T19:12:17.777Z,95898.38
2023-01-11T19:14:44.463Z,95897.94
2023-01-11T19:17:12.981Z,95897.81
2023-01-11T19:19:40.481Z,95904.28
2023-01-11T19:22:07.407Z,95909.00
2023-01-11T19:24:34.249Z,95908.19
2023-01-11T19:27:01.126Z,95905.19
2023-01-11T19:29:28.571Z,95911.63
2023-01-11T19:31:55.331Z,95911.34
2023-01-11T19:34:22.440Z,95911.28
2023-01-11T19:36:52.832Z,95913.97
2023-01-11T19:39:19.864Z,95896.31
2023-01-11T19:41:46.503Z,95892.00
2023-01-11T19:44:13.121Z,95889.16
2023-01-11T19:46:39.821Z,95882.25
2023-01-11T19:49:06.436Z,95884.19
2023-01-11T19:51:33.089Z,95899.00
2023-01-11T19:54:00.360Z,95897.44
2023-01-11T19:56:26.967Z,95897.19
2023-01-11T19:58:53.559Z,95900.38
2023-01-11T20:01:20.187Z,95897.72
2023-01-11T20:03:46.843Z,95901.63
2023-01-11T20:06:13.436Z,95905.56
2023-01-11T20:08:40.422Z,95913.78
2023-01-11T20:11:10.361Z,95910.66
2023-01-11T20:13:36.965Z,95903.75
2023-01-11T20:16:06.120Z,95908.94
2023-01-11T20:18:33.237Z,95911.63
2023-01-11T20:21:00.951Z,95918.03
2023-01-11T20:23:30.637Z,95915.56
2023-01-11T20:26:04.929Z,95912.41
2023-01-11T20:28:32.743Z,95920.41
2023-01-11T20:31:02.149Z,95924.56
2023-01-11T20:33:29.091Z,95927.28
2023-01-11T20:35:55.683Z,95922.72
2023-01-11T20:38:22.311Z,95926.91
2023-01-11T20:40:48.956Z,95930.66
2023-01-11T20:43:15.672Z,95945.41
2023-01-11T20:45:42.299Z,95943.81
2023-01-11T20:48:08.979Z,95939.69
2023-01-11T20:50:36.561Z,95941.34
2023-01-11T20:53:03.874Z,95936.25
2023-01-11T20:55:30.593Z,95942.47
2023-01-11T20:57:57.304Z,95940.78
2023-01-11T21:00:23.990Z,95933.44
2023-01-11T21:02:51.427Z,95938.91
2023-01-11T21:05:18.104Z,95944.31
2023-01-11T21:07:44.756Z,95941.13
2023-01-11T21:10:11.816Z,95939.72
2023-01-11T21:12:41.078Z,95948.66
2023-01-11T21:15:08.067Z,95951.34
2023-01-11T21:17:34.660Z,95954.00
2023-01-11T21:20:01.250Z,95960.25
2023-01-11T21:22:27.974Z,95959.75
2023-01-11T21:24:55.065Z,95961.22
2023-01-11T21:27:21.760Z,95961.59
2023-01-11T21:29:48.659Z,95963.53
2023-01-11T21:32:15.359Z,95966.84
2023-01-11T21:34:41.993Z,95976.06
2023-01-11T21:37:08.627Z,95996.97
2023-01-11T21:39:35.285Z,96008.41
2023-01-11T21:42:02.116Z,96003.16
2023-01-11T21:44:33.434Z,96003.44
2023-01-11T21:47:02.677Z,95986.84
2023-01-11T21:49:29.907Z,95977.50
2023-01-11T21:51:57.185Z,95975.44
2023-01-11T21:54:23.955Z,95981.59
2023-01-11T21:56:51.420Z,95986.41
2023-01-11T21:59:18.233Z,96000.78
2023-01-11T22:01:46.090Z,95991.28
2023-01-11T22:04:15.446Z,96001.16
2023-01-11T22:06:44.711Z,96001.72
2023-01-11T22:09:13.408Z,96002.78
2023-01-11T22:11:40.050Z,95999.03
2023-01-11T22:14:07.540Z,95996.56
2023-01-11T22:16:35.710Z,95991.81
2023-01-11T22:19:03.735Z,95988.91
2023-01-11T22:21:30.466Z,95984.56
2023-01-11T22:23:59.135Z,95993.00
2023-01-11T22:26:28.144Z,96005.94
2023-01-11T22:28:56.155Z,95997.81
2023-01-11T22:31:25.238Z,95994.00
2023-01-11T22:33:52.119Z,95991.59
2023-01-11T22:36:19.522Z,95985.13
2023-01-11T22:38:46.318Z,95988.06
2023-01-11T22:41:14.711Z,95978.59
2023-01-11T22:43:45.106Z,95975.63
2023-01-11T22:46:17.429Z,95983.59
2023-01-11T22:48:44.804Z,95984.50
2023-01-11T22:51:11.639Z,96001.09
2023-01-11T22:53:40.805Z,96001.53
2023-01-11T22:56:09.825Z,96012.09
2023-01-11T22:58:36.898Z,96016.31
2023-01-11T23:01:15.220Z,96010.59
2023-01-11T23:03:42.858Z,96010.16
2023-01-11T23:06:10.665Z,96011.75
2023-01-11T23:08:38.800Z,96009.84
2023-01-11T23:11:05.471Z,96021.03
2023-01-11T23:13:32.076Z,96023.34
2023-01-11T23:15:58.702Z,96025.19
2023-01-11T23:18:25.364Z,96026.69
2023-01-11T23:20:52.047Z,96036.66
2023-01-11T23:23:18.760Z,96036.31
2023-01-11T23:25:45.443Z,96035.97
2023-01-11T23:28:12.157Z,96034.78
2023-01-11T23:30:38.997Z,96026.97
2023-01-11T23:33:05.743Z,96032.69
2023-01-11T23:35:32.459Z,96038.44
2023-01-11T23:37:59.311Z,96038.50
2023-01-11T23:40:25.975Z,96024.09
2023-01-11T23:42:52.633Z,96010.84
2023-01-11T23:45:19.443Z,96001.59
2023-01-11T23:47:46.104Z,96007.94
2023-01-11T23:50:12.909Z,96001.50
2023-01-11T23:52:39.606Z,95998.28
2023-01-11T23:55:06.639Z,95996.72
2023-01-11T23:57:33.296Z,95994.38
2023-01-11T23:59:59.929Z,95990.53
